sensor_id;sensor_type;location;lat;lon;timestamp;P1;durP1;ratioP1;P2;durP2;ratioP2
51692;SDS011;37777;53.066;21.638;2023-08-31T00:05:55;18.35;;;15.10;;
51692;SDS011;37777;53.066;21.638;2023-08-31T00:12:57;17.85;;;15.23;;
51692;SDS011;37777;53.066;21.638;2023-08-31T00:20:01;21.70;;;17.52;;
51692;SDS011;37777;53.066;21.638;2023-08-31T00:27:07;28.15;;;16.40;;
51692;SDS011;37777;53.066;21.638;2023-08-31T00:34:08;25.00;;;16.45;;
51692;SDS011;37777;53.066;21.638;2023-08-31T00:41:12;21.88;;;17.10;;
51692;SDS011;37777;53.066;21.638;2023-08-31T00:48:14;24.35;;;17.25;;
51692;SDS011;37777;53.066;21.638;2023-08-31T00:55:18;22.20;;;17.55;;
51692;SDS011;37777;53.066;21.638;2023-08-31T01:02:24;23.42;;;17.85;;
51692;SDS011;37777;53.066;21.638;2023-08-31T01:10:04;26.02;;;18.30;;
51692;SDS011;37777;53.066;21.638;2023-08-31T01:17:12;23.85;;;18.45;;
51692;SDS011;37777;53.066;21.638;2023-08-31T01:24:17;26.15;;;17.90;;
51692;SDS011;37777;53.066;21.638;2023-08-31T01:31:18;24.40;;;18.40;;
51692;SDS011;37777;53.066;21.638;2023-08-31T01:38:23;25.30;;;18.45;;
51692;SDS011;37777;53.066;21.638;2023-08-31T01:45:28;23.58;;;18.08;;
51692;SDS011;37777;53.066;21.638;2023-08-31T01:52:32;27.42;;;18.42;;
51692;SDS011;37777;53.066;21.638;2023-08-31T01:59:34;22.60;;;17.30;;
51692;SDS011;37777;53.066;21.638;2023-08-31T02:06:36;27.33;;;16.25;;
51692;SDS011;37777;53.066;21.638;2023-08-31T02:13:37;17.83;;;15.43;;
51692;SDS011;37777;53.066;21.638;2023-08-31T02:20:39;17.38;;;14.95;;
51692;SDS011;37777;53.066;21.638;2023-08-31T02:27:40;16.52;;;14.75;;
51692;SDS011;37777;53.066;21.638;2023-08-31T02:34:41;16.75;;;15.05;;
51692;SDS011;37777;53.066;21.638;2023-08-31T02:41:43;17.70;;;14.32;;
51692;SDS011;37777;53.066;21.638;2023-08-31T02:48:44;16.90;;;14.07;;
51692;SDS011;37777;53.066;21.638;2023-08-31T02:55:47;19.85;;;14.77;;
51692;SDS011;37777;53.066;21.638;2023-08-31T03:02:48;18.05;;;15.05;;
51692;SDS011;37777;53.066;21.638;2023-08-31T03:09:53;16.73;;;14.90;;
51692;SDS011;37777;53.066;21.638;2023-08-31T03:16:54;17.85;;;15.93;;
51692;SDS011;37777;53.066;21.638;2023-08-31T03:23:56;16.80;;;14.95;;
51692;SDS011;37777;53.066;21.638;2023-08-31T03:30:57;17.48;;;14.73;;
51692;SDS011;37777;53.066;21.638;2023-08-31T03:37:59;18.08;;;15.35;;
51692;SDS011;37777;53.066;21.638;2023-08-31T03:45:02;18.08;;;16.15;;
51692;SDS011;37777;53.066;21.638;2023-08-31T03:52:04;19.73;;;16.42;;
51692;SDS011;37777;53.066;21.638;2023-08-31T03:59:06;20.80;;;15.15;;
51692;SDS011;37777;53.066;21.638;2023-08-31T04:06:08;22.52;;;17.45;;
51692;SDS011;37777;53.066;21.638;2023-08-31T04:13:09;17.70;;;15.82;;
51692;SDS011;37777;53.066;21.638;2023-08-31T04:20:12;17.20;;;15.40;;
51692;SDS011;37777;53.066;21.638;2023-08-31T04:27:14;17.33;;;15.43;;
51692;SDS011;37777;53.066;21.638;2023-08-31T04:34:15;18.83;;;16.42;;
51692;SDS011;37777;53.066;21.638;2023-08-31T04:41:17;19.40;;;16.38;;
51692;SDS011;37777;53.066;21.638;2023-08-31T04:48:18;22.33;;;14.45;;
51692;SDS011;37777;53.066;21.638;2023-08-31T04:55:21;18.67;;;14.75;;
51692;SDS011;37777;53.066;21.638;2023-08-31T05:02:23;15.13;;;13.65;;
51692;SDS011;37777;53.066;21.638;2023-08-31T05:09:24;13.73;;;12.30;;
51692;SDS011;37777;53.066;21.638;2023-08-31T05:16:26;15.18;;;12.77;;
51692;SDS011;37777;53.066;21.638;2023-08-31T05:23:27;16.52;;;13.05;;
51692;SDS011;37777;53.066;21.638;2023-08-31T05:30:29;12.73;;;11.43;;
51692;SDS011;37777;53.066;21.638;2023-08-31T05:37:33;13.57;;;12.23;;
51692;SDS011;37777;53.066;21.638;2023-08-31T05:44:36;12.93;;;10.88;;
51692;SDS011;37777;53.066;21.638;2023-08-31T05:51:38;13.23;;;12.02;;
51692;SDS011;37777;53.066;21.638;2023-08-31T05:58:39;12.20;;;11.20;;
51692;SDS011;37777;53.066;21.638;2023-08-31T06:05:40;11.77;;;10.75;;
51692;SDS011;37777;53.066;21.638;2023-08-31T06:12:42;12.88;;;11.63;;
51692;SDS011;37777;53.066;21.638;2023-08-31T06:19:43;11.32;;;10.43;;
51692;SDS011;37777;53.066;21.638;2023-08-31T06:26:45;10.88;;;10.07;;
51692;SDS011;37777;53.066;21.638;2023-08-31T06:33:47;12.05;;;11.00;;
51692;SDS011;37777;53.066;21.638;2023-08-31T06:40:48;10.88;;;9.88;;
51692;SDS011;37777;53.066;21.638;2023-08-31T06:47:49;11.77;;;9.73;;
51692;SDS011;37777;53.066;21.638;2023-08-31T06:54:51;9.90;;;9.20;;
51692;SDS011;37777;53.066;21.638;2023-08-31T07:01:57;11.30;;;10.13;;
51692;SDS011;37777;53.066;21.638;2023-08-31T07:08:59;11.90;;;10.85;;
51692;SDS011;37777;53.066;21.638;2023-08-31T07:16:00;12.57;;;11.48;;
51692;SDS011;37777;53.066;21.638;2023-08-31T07:23:02;13.80;;;12.10;;
51692;SDS011;37777;53.066;21.638;2023-08-31T07:30:04;14.15;;;12.85;;
51692;SDS011;37777;53.066;21.638;2023-08-31T07:37:06;12.38;;;11.27;;
51692;SDS011;37777;53.066;21.638;2023-08-31T07:44:08;12.45;;;11.30;;
51692;SDS011;37777;53.066;21.638;2023-08-31T07:51:09;11.73;;;10.82;;
51692;SDS011;37777;53.066;21.638;2023-08-31T07:58:11;11.50;;;10.55;;
51692;SDS011;37777;53.066;21.638;2023-08-31T08:05:12;11.43;;;10.43;;
51692;SDS011;37777;53.066;21.638;2023-08-31T08:12:14;11.23;;;10.52;;
51692;SDS011;37777;53.066;21.638;2023-08-31T08:19:20;11.20;;;10.30;;
51692;SDS011;37777;53.066;21.638;2023-08-31T08:26:25;11.10;;;10.40;;
51692;SDS011;37777;53.066;21.638;2023-08-31T08:33:27;11.18;;;10.48;;
51692;SDS011;37777;53.066;21.638;2023-08-31T08:40:30;12.88;;;12.05;;
51692;SDS011;37777;53.066;21.638;2023-08-31T08:47:32;11.75;;;11.00;;
51692;SDS011;37777;53.066;21.638;2023-08-31T08:54:34;12.38;;;11.50;;
51692;SDS011;37777;53.066;21.638;2023-08-31T09:01:39;12.45;;;11.65;;
51692;SDS011;37777;53.066;21.638;2023-08-31T09:08:41;12.63;;;11.80;;
51692;SDS011;37777;53.066;21.638;2023-08-31T09:15:43;13.00;;;11.77;;
51692;SDS011;37777;53.066;21.638;2023-08-31T09:22:46;14.38;;;13.25;;
51692;SDS011;37777;53.066;21.638;2023-08-31T09:29:50;13.05;;;12.05;;
51692;SDS011;37777;53.066;21.638;2023-08-31T09:36:55;14.10;;;13.10;;
51692;SDS011;37777;53.066;21.638;2023-08-31T09:43:56;12.82;;;11.93;;
51692;SDS011;37777;53.066;21.638;2023-08-31T09:58:23;14.13;;;12.73;;
51692;SDS011;37777;53.066;21.638;2023-08-31T10:05:25;14.00;;;13.00;;
51692;SDS011;37777;53.066;21.638;2023-08-31T10:12:28;14.40;;;13.40;;
51692;SDS011;37777;53.066;21.638;2023-08-31T10:19:32;15.05;;;13.80;;
51692;SDS011;37777;53.066;21.638;2023-08-31T10:26:33;15.07;;;13.98;;
51692;SDS011;37777;53.066;21.638;2023-08-31T10:33:39;16.05;;;14.75;;
51692;SDS011;37777;53.066;21.638;2023-08-31T10:40:40;17.10;;;14.55;;
51692;SDS011;37777;53.066;21.638;2023-08-31T10:47:42;15.98;;;14.77;;
51692;SDS011;37777;53.066;21.638;2023-08-31T10:54:46;15.55;;;14.45;;
51692;SDS011;37777;53.066;21.638;2023-08-31T11:08:56;16.20;;;14.90;;
51692;SDS011;37777;53.066;21.638;2023-08-31T11:15:58;16.20;;;14.88;;
51692;SDS011;37777;53.066;21.638;2023-08-31T11:23:00;16.55;;;15.32;;
51692;SDS011;37777;53.066;21.638;2023-08-31T11:30:01;16.23;;;15.02;;
51692;SDS011;37777;53.066;21.638;2023-08-31T11:37:04;15.57;;;14.38;;
51692;SDS011;37777;53.066;21.638;2023-08-31T11:44:06;16.90;;;15.50;;
51692;SDS011;37777;53.066;21.638;2023-08-31T11:51:12;17.60;;;15.88;;
51692;SDS011;37777;53.066;21.638;2023-08-31T11:58:14;17.00;;;15.70;;
51692;SDS011;37777;53.066;21.638;2023-08-31T12:05:16;17.45;;;16.00;;
51692;SDS011;37777;53.066;21.638;2023-08-31T12:12:20;17.80;;;16.35;;
51692;SDS011;37777;53.066;21.638;2023-08-31T12:19:22;16.88;;;15.48;;
51692;SDS011;37777;53.066;21.638;2023-08-31T12:26:28;16.35;;;14.98;;
51692;SDS011;37777;53.066;21.638;2023-08-31T12:33:29;16.55;;;15.35;;
51692;SDS011;37777;53.066;21.638;2023-08-31T12:40:31;17.60;;;16.08;;
51692;SDS011;37777;53.066;21.638;2023-08-31T12:47:34;17.73;;;16.27;;
51692;SDS011;37777;53.066;21.638;2023-08-31T12:54:36;17.10;;;15.90;;
51692;SDS011;37777;53.066;21.638;2023-08-31T13:01:39;17.02;;;15.63;;
51692;SDS011;37777;53.066;21.638;2023-08-31T13:08:42;16.33;;;14.95;;
51692;SDS011;37777;53.066;21.638;2023-08-31T13:15:46;16.20;;;14.90;;
51692;SDS011;37777;53.066;21.638;2023-08-31T13:22:50;16.80;;;15.25;;
51692;SDS011;37777;53.066;21.638;2023-08-31T13:29:52;16.70;;;15.48;;
51692;SDS011;37777;53.066;21.638;2023-08-31T13:36:54;15.38;;;14.38;;
51692;SDS011;37777;53.066;21.638;2023-08-31T13:43:56;16.65;;;15.45;;
51692;SDS011;37777;53.066;21.638;2023-08-31T13:50:57;16.50;;;15.40;;
51692;SDS011;37777;53.066;21.638;2023-08-31T13:58:03;16.17;;;15.05;;
51692;SDS011;37777;53.066;21.638;2023-08-31T14:05:06;17.55;;;16.20;;
51692;SDS011;37777;53.066;21.638;2023-08-31T14:12:09;16.35;;;15.15;;
51692;SDS011;37777;53.066;21.638;2023-08-31T14:19:11;17.77;;;16.27;;
51692;SDS011;37777;53.066;21.638;2023-08-31T14:26:12;18.00;;;16.42;;
51692;SDS011;37777;53.066;21.638;2023-08-31T14:33:14;17.60;;;16.33;;
51692;SDS011;37777;53.066;21.638;2023-08-31T14:40:16;17.52;;;16.23;;
51692;SDS011;37777;53.066;21.638;2023-08-31T14:47:17;19.02;;;17.42;;
51692;SDS011;37777;53.066;21.638;2023-08-31T14:54:19;18.92;;;17.30;;
51692;SDS011;37777;53.066;21.638;2023-08-31T15:01:20;18.85;;;17.45;;
51692;SDS011;37777;53.066;21.638;2023-08-31T15:08:34;18.02;;;16.67;;
51692;SDS011;37777;53.066;21.638;2023-08-31T15:15:36;15.63;;;14.52;;
51692;SDS011;37777;53.066;21.638;2023-08-31T15:22:38;16.38;;;15.05;;
51692;SDS011;37777;53.066;21.638;2023-08-31T15:29:39;15.90;;;14.20;;
51692;SDS011;37777;53.066;21.638;2023-08-31T15:36:41;14.45;;;13.45;;
51692;SDS011;37777;53.066;21.638;2023-08-31T15:43:42;15.68;;;14.45;;
51692;SDS011;37777;53.066;21.638;2023-08-31T15:50:44;16.15;;;15.00;;
51692;SDS011;37777;53.066;21.638;2023-08-31T15:57:45;16.67;;;15.15;;
51692;SDS011;37777;53.066;21.638;2023-08-31T16:04:47;17.33;;;15.68;;
51692;SDS011;37777;53.066;21.638;2023-08-31T16:11:49;17.33;;;15.88;;
51692;SDS011;37777;53.066;21.638;2023-08-31T16:18:51;16.02;;;14.82;;
51692;SDS011;37777;53.066;21.638;2023-08-31T16:25:52;17.08;;;15.68;;
51692;SDS011;37777;53.066;21.638;2023-08-31T16:32:54;17.70;;;16.10;;
51692;SDS011;37777;53.066;21.638;2023-08-31T16:39:55;19.83;;;17.23;;
51692;SDS011;37777;53.066;21.638;2023-08-31T16:46:57;17.80;;;16.40;;
51692;SDS011;37777;53.066;21.638;2023-08-31T16:53:58;15.90;;;14.68;;
51692;SDS011;37777;53.066;21.638;2023-08-31T17:01:00;15.05;;;13.98;;
51692;SDS011;37777;53.066;21.638;2023-08-31T17:08:02;15.88;;;14.68;;
51692;SDS011;37777;53.066;21.638;2023-08-31T17:15:04;15.60;;;14.48;;
51692;SDS011;37777;53.066;21.638;2023-08-31T17:22:07;15.98;;;14.68;;
51692;SDS011;37777;53.066;21.638;2023-08-31T17:29:08;16.67;;;15.38;;
51692;SDS011;37777;53.066;21.638;2023-08-31T17:36:10;15.38;;;13.90;;
51692;SDS011;37777;53.066;21.638;2023-08-31T17:43:11;15.00;;;13.75;;
51692;SDS011;37777;53.066;21.638;2023-08-31T17:50:13;15.27;;;14.07;;
51692;SDS011;37777;53.066;21.638;2023-08-31T17:57:15;14.95;;;13.77;;
51692;SDS011;37777;53.066;21.638;2023-08-31T18:04:16;14.93;;;13.82;;
51692;SDS011;37777;53.066;21.638;2023-08-31T18:11:18;17.63;;;16.00;;
51692;SDS011;37777;53.066;21.638;2023-08-31T18:18:19;17.42;;;15.75;;
51692;SDS011;37777;53.066;21.638;2023-08-31T18:25:21;17.10;;;15.50;;
51692;SDS011;37777;53.066;21.638;2023-08-31T18:32:23;17.33;;;15.55;;
51692;SDS011;37777;53.066;21.638;2023-08-31T18:39:24;17.90;;;16.08;;
51692;SDS011;37777;53.066;21.638;2023-08-31T18:46:26;19.42;;;17.02;;
51692;SDS011;37777;53.066;21.638;2023-08-31T18:53:28;18.50;;;16.80;;
51692;SDS011;37777;53.066;21.638;2023-08-31T19:00:30;16.27;;;14.88;;
51692;SDS011;37777;53.066;21.638;2023-08-31T19:07:32;16.33;;;14.75;;
51692;SDS011;37777;53.066;21.638;2023-08-31T19:14:33;16.67;;;15.18;;
51692;SDS011;37777;53.066;21.638;2023-08-31T19:21:35;16.45;;;14.95;;
51692;SDS011;37777;53.066;21.638;2023-08-31T19:28:36;15.40;;;14.20;;
51692;SDS011;37777;53.066;21.638;2023-08-31T19:35:38;17.15;;;15.27;;
51692;SDS011;37777;53.066;21.638;2023-08-31T19:42:58;14.90;;;13.60;;
51692;SDS011;37777;53.066;21.638;2023-08-31T19:50:00;15.63;;;14.30;;
51692;SDS011;37777;53.066;21.638;2023-08-31T19:57:02;16.88;;;15.15;;
51692;SDS011;37777;53.066;21.638;2023-08-31T20:04:04;15.20;;;13.77;;
51692;SDS011;37777;53.066;21.638;2023-08-31T20:11:06;14.82;;;13.73;;
51692;SDS011;37777;53.066;21.638;2023-08-31T20:18:08;24.63;;;14.65;;
51692;SDS011;37777;53.066;21.638;2023-08-31T20:25:09;15.02;;;13.80;;
51692;SDS011;37777;53.066;21.638;2023-08-31T20:32:14;15.30;;;14.10;;
51692;SDS011;37777;53.066;21.638;2023-08-31T20:39:16;15.50;;;14.10;;
51692;SDS011;37777;53.066;21.638;2023-08-31T20:46:18;15.73;;;14.50;;
51692;SDS011;37777;53.066;21.638;2023-08-31T20:53:19;15.95;;;14.65;;
51692;SDS011;37777;53.066;21.638;2023-08-31T21:00:21;15.65;;;14.00;;
51692;SDS011;37777;53.066;21.638;2023-08-31T21:07:23;14.77;;;13.65;;
51692;SDS011;37777;53.066;21.638;2023-08-31T21:14:24;16.38;;;15.07;;
51692;SDS011;37777;53.066;21.638;2023-08-31T21:21:27;18.20;;;14.75;;
51692;SDS011;37777;53.066;21.638;2023-08-31T21:28:29;16.75;;;15.15;;
51692;SDS011;37777;53.066;21.638;2023-08-31T21:35:34;15.73;;;14.43;;
51692;SDS011;37777;53.066;21.638;2023-08-31T21:42:37;16.00;;;14.60;;
51692;SDS011;37777;53.066;21.638;2023-08-31T21:49:38;15.02;;;13.93;;
51692;SDS011;37777;53.066;21.638;2023-08-31T21:56:40;16.02;;;14.55;;
51692;SDS011;37777;53.066;21.638;2023-08-31T22:03:41;15.52;;;14.27;;
51692;SDS011;37777;53.066;21.638;2023-08-31T22:10:43;15.40;;;14.30;;
51692;SDS011;37777;53.066;21.638;2023-08-31T22:17:45;15.13;;;13.85;;
51692;SDS011;37777;53.066;21.638;2023-08-31T22:24:48;15.57;;;14.40;;
51692;SDS011;37777;53.066;21.638;2023-08-31T22:31:49;16.15;;;14.85;;
51692;SDS011;37777;53.066;21.638;2023-08-31T22:38:51;15.77;;;14.57;;
51692;SDS011;37777;53.066;21.638;2023-08-31T22:45:56;15.80;;;14.55;;
51692;SDS011;37777;53.066;21.638;2023-08-31T22:52:58;16.10;;;14.85;;
51692;SDS011;37777;53.066;21.638;2023-08-31T23:00:01;16.67;;;15.38;;
51692;SDS011;37777;53.066;21.638;2023-08-31T23:07:06;16.75;;;15.45;;
51692;SDS011;37777;53.066;21.638;2023-08-31T23:14:07;17.08;;;15.52;;
51692;SDS011;37777;53.066;21.638;2023-08-31T23:21:09;16.25;;;14.95;;
51692;SDS011;37777;53.066;21.638;2023-08-31T23:28:11;16.00;;;14.68;;
51692;SDS011;37777;53.066;21.638;2023-08-31T23:35:13;16.85;;;15.35;;
51692;SDS011;37777;53.066;21.638;2023-08-31T23:42:14;16.45;;;15.02;;
51692;SDS011;37777;53.066;21.638;2023-08-31T23:49:16;16.00;;;14.80;;
51692;SDS011;37777;53.066;21.638;2023-08-31T23:56:17;15.43;;;14.32;;
